Time;durP1;ratioP1;P1;durP2;ratioP2;P2;SDS_P1;SDS_P2;PMS_P1;PMS_P2;Temp;Humidity;BMP_temperature;BMP_pressure;BME280_temperature;BME280_humidity;BME280_pressure;Samples;Min_cycle;Max_cycle;Signal;HPM_P1;HPM_P2
2024/03/05 00:01:17;;;;;;;;;;;;;;;16.87;46.11;100410.78;4949471;29;1121;-50
2024/03/05 00:03:42;;;;;;;;;;;;;;;17.39;44.74;100414.69;4959599;28;1918;-46
2024/03/05 00:06:10;;;;;;;;;;;;;;;16.45;46.95;100414.03;4959696;29;1045;-48
2024/03/05 00:08:35;;;;;;;;;;;;;;;16.05;47.75;100412.66;4958238;29;1438;-44
2024/03/05 00:11:02;;;;;;;;;;;;;;;15.76;48.67;100405.94;4946928;29;1189;-48
2024/03/05 00:13:28;;;;;;;;;;;;;;;15.50;49.11;100397.22;4953037;29;1055;-45
2024/03/05 00:15:53;;;;;;;;;;;;;;;15.38;49.50;100401.66;4941310;29;1090;-49
2024/03/05 00:18:20;;;;;;;;;;;;;;;16.82;46.54;100396.16;4955187;29;1114;-45
2024/03/05 00:20:46;;;;;;;;;;;;;;;17.24;45.03;100399.03;4959781;29;1124;-45
2024/03/05 00:23:12;;;;;;;;;;;;;;;16.31;47.21;100385.91;4958356;29;1899;-44
2024/03/05 00:25:38;;;;;;;;;;;;;;;15.94;48.03;100383.41;4959369;29;1155;-49
2024/03/05 00:28:05;;;;;;;;;;;;;;;15.72;48.81;100385.03;4957419;29;1395;-48
2024/03/05 00:30:30;;;;;;;;;;;;;;;15.56;49.03;100378.25;4949258;29;1146;-48
2024/03/05 00:32:56;;;;;;;;;;;;;;;17.02;45.76;100376.81;4959232;29;1097;-49
2024/03/05 00:35:21;;;;;;;;;;;;;;;16.81;45.90;100375.88;4959275;29;1046;-47
2024/03/05 00:37:47;;;;;;;;;;;;;;;16.16;47.55;100374.69;4959100;28;1034;-47
2024/03/05 00:40:12;;;;;;;;;;;;;;;15.78;48.63;100369.50;4959153;29;1156;-44
2024/03/05 00:42:38;;;;;;;;;;;;;;;15.61;48.83;100360.19;4959049;29;1903;-48
2024/03/05 00:45:06;;;;;;;;;;;;;;;15.41;49.53;100356.38;4958910;29;1061;-47
2024/03/05 00:47:33;;;;;;;;;;;;;;;16.52;47.39;100364.81;4957245;29;1173;-48
2024/03/05 00:49:59;;;;;;;;;;;;;;;17.54;44.61;100356.72;4959513;29;1053;-48
2024/03/05 00:52:25;;;;;;;;;;;;;;;16.58;46.80;100358.16;4959090;29;1029;-45
2024/03/05 00:54:50;;;;;;;;;;;;;;;16.05;48.07;100356.94;4958756;29;1248;-46
2024/03/05 00:57:16;;;;;;;;;;;;;;;15.80;48.34;100353.47;4958914;29;1240;-46
2024/03/05 00:59:43;;;;;;;;;;;;;;;15.52;49.30;100348.47;4958514;29;1252;-47
2024/03/05 01:02:08;;;;;;;;;;;;;;;16.65;46.74;100356.69;4958602;29;1985;-44
2024/03/05 01:04:34;;;;;;;;;;;;;;;17.18;45.16;100356.16;4949976;29;1161;-48
2024/03/05 01:07:00;;;;;;;;;;;;;;;16.31;47.28;100351.41;4954791;29;1035;-46
2024/03/05 01:09:27;;;;;;;;;;;;;;;15.91;48.28;100342.88;4958644;29;1144;-44
2024/03/05 01:11:53;;;;;;;;;;;;;;;15.66;48.81;100350.06;4948294;29;1216;-45
2024/03/05 01:14:19;;;;;;;;;;;;;;;15.46;49.01;100348.94;4950201;28;1224;-45
2024/03/05 01:16:44;;;;;;;;;;;;;;;16.81;46.52;100344.84;4954857;29;1116;-45
2024/03/05 01:19:12;;;;;;;;;;;;;;;17.10;45.28;100349.63;4959163;29;1070;-46
2024/03/05 01:21:37;;;;;;;;;;;;;;;16.22;47.41;100344.16;4958382;29;1898;-49
2024/03/05 01:24:04;;;;;;;;;;;;;;;15.89;48.46;100343.97;4958033;29;1049;-45
2024/03/05 01:26:29;;;;;;;;;;;;;;;15.61;49.24;100338.13;4958624;29;1176;-49
2024/03/05 01:28:55;;;;;;;;;;;;;;;15.61;49.20;100336.31;4958357;29;1140;-46
2024/03/05 01:31:21;;;;;;;;;;;;;;;17.06;45.85;100334.03;4958410;29;1092;-50
2024/03/05 01:33:46;;;;;;;;;;;;;;;16.85;45.95;100337.50;4958452;29;1193;-49
2024/03/05 01:36:15;;;;;;;;;;;;;;;16.16;47.56;100333.06;4957785;29;1085;-47
2024/03/05 01:38:41;;;;;;;;;;;;;;;15.86;48.25;100325.66;4958304;29;1150;-43
2024/03/05 01:41:06;;;;;;;;;;;;;;;15.65;48.57;100332.47;4958668;29;1108;-50
2024/03/05 01:43:32;;;;;;;;;;;;;;;16.36;47.51;100335.97;4958103;28;1967;-45
2024/03/05 01:45:58;;;;;;;;;;;;;;;17.44;44.69;100332.72;4957845;29;1113;-46
2024/03/05 01:48:23;;;;;;;;;;;;;;;16.50;46.64;100334.00;4951218;29;1093;-46
2024/03/05 01:50:49;;;;;;;;;;;;;;;16.00;47.90;100327.25;4934004;29;1082;-48
2024/03/05 01:53:15;;;;;;;;;;;;;;;15.73;48.45;100320.44;4930252;29;1190;-47
2024/03/05 01:55:40;;;;;;;;;;;;;;;15.54;49.26;100317.38;4945592;29;1137;-46
2024/03/05 01:58:06;;;;;;;;;;;;;;;15.40;49.55;100317.56;4958189;29;1065;-46
2024/03/05 02:00:32;;;;;;;;;;;;;;;16.93;46.01;100315.59;4956531;29;1050;-48
2024/03/05 02:02:58;;;;;;;;;;;;;;;17.29;44.92;100315.38;4958186;29;1899;-48
2024/03/05 02:05:25;;;;;;;;;;;;;;;16.34;47.38;100318.47;4958069;29;1065;-45
2024/03/05 02:07:54;;;;;;;;;;;;;;;15.98;48.22;100315.91;4941310;29;1149;-48
2024/03/05 02:10:20;;;;;;;;;;;;;;;15.69;49.09;100314.53;4958092;29;1168;-49
2024/03/05 02:12:45;;;;;;;;;;;;;;;15.52;49.20;100314.00;4957780;29;1025;-49
2024/03/05 02:15:11;;;;;;;;;;;;;;;15.69;49.20;100319.81;4957575;29;1057;-46
2024/03/05 02:17:40;;;;;;;;;;;;;;;17.12;45.67;100313.16;4956711;29;1154;-49
2024/03/05 02:20:09;;;;;;;;;;;;;;;17.07;45.21;100301.16;4957703;28;1110;-45
2024/03/05 02:22:38;;;;;;;;;;;;;;;16.23;47.31;100306.88;4958194;29;1977;-48
2024/03/05 02:25:03;;;;;;;;;;;;;;;15.90;48.42;100301.41;4951476;29;1128;-45
2024/03/05 02:27:29;;;;;;;;;;;;;;;15.62;48.99;100300.03;4947393;29;1153;-48
2024/03/05 02:29:54;;;;;;;;;;;;;;;15.45;49.43;100290.72;4951178;29;1113;-46
2024/03/05 02:32:20;;;;;;;;;;;;;;;15.98;48.54;100302.63;4948748;29;1113;-47
2024/03/05 02:34:45;;;;;;;;;;;;;;;17.33;45.23;100300.88;4935678;29;1034;-45
2024/03/05 02:37:11;;;;;;;;;;;;;;;16.97;45.63;100293.13;4957486;29;1227;-47
2024/03/05 02:39:37;;;;;;;;;;;;;;;16.24;47.57;100294.47;4957858;29;1057;-47
2024/03/05 02:42:02;;;;;;;;;;;;;;;15.90;48.38;100287.28;4957640;29;1911;-46
2024/03/05 02:44:29;;;;;;;;;;;;;;;15.73;48.64;100285.97;4957449;29;1046;-47
2024/03/05 02:46:54;;;;;;;;;;;;;;;15.49;49.57;100287.72;4947537;29;1117;-50
2024/03/05 02:49:20;;;;;;;;;;;;;;;16.92;46.13;100290.84;4954740;29;1007;-44
2024/03/05 02:51:47;;;;;;;;;;;;;;;16.85;45.92;100298.47;4957793;29;1068;-48
2024/03/05 02:54:13;;;;;;;;;;;;;;;16.12;48.00;100296.25;4957062;29;1195;-45
2024/03/05 02:56:39;;;;;;;;;;;;;;;15.78;48.51;100286.47;4957884;29;1231;-47
2024/03/05 02:59:05;;;;;;;;;;;;;;;15.54;49.17;100296.19;4957110;29;1053;-45
2024/03/05 03:01:30;;;;;;;;;;;;;;;15.44;49.41;100295.16;4958445;28;888;-48
2024/03/05 03:03:56;;;;;;;;;;;;;;;16.72;46.93;100284.50;4960954;29;1906;-46
2024/03/05 03:06:22;;;;;;;;;;;;;;;17.21;45.12;100276.16;4961228;29;1053;-47
2024/03/05 03:08:47;;;;;;;;;;;;;;;16.29;47.53;100271.06;4960381;29;1085;-49
2024/03/05 03:11:18;;;;;;;;;;;;;;;15.89;48.35;100278.50;4960704;29;1557;-44
2024/03/05 03:13:46;;;;;;;;;;;;;;;15.66;48.99;100264.38;4953026;29;1119;-47
2024/03/05 03:16:13;;;;;;;;;;;;;;;15.45;49.17;100270.34;4960660;29;1144;-47
2024/03/05 03:18:39;;;;;;;;;;;;;;;15.29;50.09;100273.31;4947625;29;1200;-45
2024/03/05 03:21:04;;;;;;;;;;;;;;;16.69;46.67;100277.63;4950138;29;1149;-46
2024/03/05 03:23:30;;;;;;;;;;;;;;;17.40;44.81;100272.78;4958248;29;1985;-44
2024/03/05 03:25:58;;;;;;;;;;;;;;;16.39;47.21;100271.16;4960152;29;928;-46
2024/03/05 03:28:23;;;;;;;;;;;;;;;16.01;48.12;100282.06;4960627;29;1101;-47
2024/03/05 03:30:52;;;;;;;;;;;;;;;15.67;49.31;100280.16;4960683;29;1129;-44
2024/03/05 03:33:18;;;;;;;;;;;;;;;15.49;49.27;100290.38;4960572;29;1120;-48
2024/03/05 03:35:44;;;;;;;;;;;;;;;16.99;46.09;100285.88;4960226;29;1069;-46
2024/03/05 03:38:09;;;;;;;;;;;;;;;16.74;46.16;100294.03;4950261;29;1156;-46
2024/03/05 03:40:35;;;;;;;;;;;;;;;16.02;48.05;100288.19;4960136;29;1057;-47
2024/03/05 03:43:01;;;;;;;;;;;;;;;15.74;48.85;100290.28;4960305;29;1910;-48
2024/03/05 03:45:27;;;;;;;;;;;;;;;15.61;48.93;100290.41;4960441;29;1185;-48
2024/03/05 03:47:52;;;;;;;;;;;;;;;15.45;49.32;100283.59;4960212;29;1037;-48
2024/03/05 03:50:18;;;;;;;;;;;;;;;16.25;47.96;100283.72;4956305;29;881;-47
2024/03/05 03:52:43;;;;;;;;;;;;;;;17.45;45.01;100291.03;4960364;29;1102;-46
2024/03/05 03:55:09;;;;;;;;;;;;;;;16.58;46.70;100293.59;4959876;29;1205;-48
2024/03/05 03:57:35;;;;;;;;;;;;;;;16.03;48.23;100290.72;4959911;29;1077;-46
2024/03/05 04:00:01;;;;;;;;;;;;;;;15.76;48.72;100291.88;4959722;29;1574;-44
2024/03/05 04:02:29;;;;;;;;;;;;;;;15.55;49.08;100292.56;4959598;29;1958;-45
2024/03/05 04:04:55;;;;;;;;;;;;;;;15.94;48.64;100290.56;4960468;29;1132;-44
2024/03/05 04:07:21;;;;;;;;;;;;;;;17.31;45.33;100297.50;4959977;29;1340;-46
2024/03/05 04:09:47;;;;;;;;;;;;;;;16.68;46.45;100286.56;4948576;29;1137;-45
2024/03/05 04:12:13;;;;;;;;;;;;;;;16.15;47.64;100274.78;4957767;28;1235;-48
2024/03/05 04:14:39;;;;;;;;;;;;;;;15.74;48.93;100283.19;4955285;29;863;-48
2024/03/05 04:17:07;;;;;;;;;;;;;;;15.63;49.24;100278.69;4959570;29;1074;-48
2024/03/05 04:19:33;;;;;;;;;;;;;;;15.72;49.41;100278.94;4956270;29;1042;-50
2024/03/05 04:21:59;;;;;;;;;;;;;;;17.22;45.65;100281.34;4956857;29;2542;-48
2024/03/05 04:24:24;;;;;;;;;;;;;;;17.05;45.76;100276.56;4951843;29;2002;-45
2024/03/05 04:26:53;;;;;;;;;;;;;;;16.21;47.53;100276.13;4958446;29;2136;-44
2024/03/05 04:29:19;;;;;;;;;;;;;;;15.89;48.56;100269.69;4958197;29;2162;-42
2024/03/05 04:31:54;;;;;;;;;;;;;;;15.67;49.23;100271.34;4953654;29;1998;-46
2024/03/05 04:34:20;;;;;;;;;;;;;;;15.53;49.38;100270.59;4958030;29;2086;-48
2024/03/05 04:36:46;;;;;;;;;;;;;;;15.58;49.34;100275.56;4958947;29;1098;-51
2024/03/05 04:39:15;;;;;;;;;;;;;;;17.06;45.81;100276.44;4952908;29;1219;-45
2024/03/05 04:41:44;;;;;;;;;;;;;;;16.83;46.43;100273.84;4958817;29;1972;-44
2024/03/05 04:44:09;;;;;;;;;;;;;;;16.07;48.08;100269.25;4958850;29;1224;-48
2024/03/05 04:46:35;;;;;;;;;;;;;;;15.79;48.70;100273.09;4959186;29;1268;-47
2024/03/05 04:49:00;;;;;;;;;;;;;;;15.53;49.53;100267.97;4958101;29;1347;-43
2024/03/05 04:51:26;;;;;;;;;;;;;;;15.38;49.82;100269.97;4956295;29;1335;-47
2024/03/05 04:53:51;;;;;;;;;;;;;;;16.34;48.03;100268.03;4958010;29;1148;-45
2024/03/05 04:56:18;;;;;;;;;;;;;;;17.48;45.09;100272.97;4952385;29;1068;-45
2024/03/05 04:58:43;;;;;;;;;;;;;;;17.71;44.37;100275.50;4949943;29;1108;-43
2024/03/05 05:01:09;;;;;;;;;;;;;;;16.66;46.34;100277.88;4956870;29;1053;-47
2024/03/05 05:03:34;;;;;;;;;;;;;;;15.87;48.32;100275.13;4950072;29;1906;-51
2024/03/05 05:06:00;;;;;;;;;;;;;;;15.68;48.78;100278.38;4958578;29;2717;-47
2024/03/05 05:08:25;;;;;;;;;;;;;;;15.61;49.82;100280.66;4957792;29;1291;-47
2024/03/05 05:10:51;;;;;;;;;;;;;;;17.11;46.01;100287.56;4958521;29;994;-45
2024/03/05 05:13:16;;;;;;;;;;;;;;;17.86;44.52;100277.81;4955746;29;1021;-46
2024/03/05 05:15:42;;;;;;;;;;;;;;;15.95;48.12;100277.16;4951718;29;1113;-46
2024/03/05 05:18:07;;;;;;;;;;;;;;;15.44;49.03;100273.97;4952299;29;1165;-44
2024/03/05 05:20:33;;;;;;;;;;;;;;;15.15;48.30;100275.19;4945908;29;1154;-45
2024/03/05 05:22:59;;;;;;;;;;;;;;;15.60;49.12;100278.94;4958275;29;1914;-47
2024/03/05 05:25:24;;;;;;;;;;;;;;;16.72;47.28;100279.19;4957949;28;1062;-48
2024/03/05 05:27:50;;;;;;;;;;;;;;;15.48;49.33;100282.53;4957973;29;1002;-44
2024/03/05 05:30:16;;;;;;;;;;;;;;;15.17;48.61;100277.72;4958402;29;1022;-47
2024/03/05 05:32:42;;;;;;;;;;;;;;;15.42;49.69;100273.22;4958363;29;1134;-49
2024/03/05 05:35:08;;;;;;;;;;;;;;;16.17;48.86;100278.19;4957751;29;2740;-46
2024/03/05 05:37:33;;;;;;;;;;;;;;;15.34;49.44;100281.78;4956080;29;1205;-48
2024/03/05 05:39:59;;;;;;;;;;;;;;;15.06;48.56;100283.84;4958330;29;1072;-44
2024/03/05 05:42:24;;;;;;;;;;;;;;;16.33;48.96;100285.75;4957894;29;1922;-46
2024/03/05 05:44:52;;;;;;;;;;;;;;;15.81;49.27;100290.66;4958028;29;1200;-44
2024/03/05 05:47:19;;;;;;;;;;;;;;;15.70;50.48;100289.69;4957944;29;1101;-44
2024/03/05 05:49:44;;;;;;;;;;;;;;;16.93;47.14;100289.88;4956641;28;1188;-44
2024/03/05 05:52:11;;;;;;;;;;;;;;;15.69;48.86;100285.34;4954740;29;1116;-45
2024/03/05 05:54:42;;;;;;;;;;;;;;;16.46;48.92;100306.88;4955750;29;1138;-45
2024/03/05 05:57:08;;;;;;;;;;;;;;;16.00;48.95;100292.75;4958151;29;1026;-47
2024/03/05 05:59:34;;;;;;;;;;;;;;;15.60;48.52;100291.38;4958002;29;987;-46
2024/03/05 06:01:59;;;;;;;;;;;;;;;16.29;49.36;100302.91;4954016;29;1979;-45
2024/03/05 06:04:25;;;;;;;;;;;;;;;15.58;48.83;100296.75;4957434;29;2506;-43
2024/03/05 06:06:51;;;;;;;;;;;;;;;15.93;50.04;100286.22;4957841;29;914;-45
2024/03/05 06:09:27;;;;;;;;;;;;;;;16.41;48.52;100290.47;4957721;29;1045;-47
2024/03/05 06:11:55;;;;;;;;;;;;;;;15.62;48.61;100303.53;4955779;29;1200;-44
2024/03/05 06:14:21;;;;;;;;;;;;;;;15.17;48.65;100298.94;4944851;29;1025;-45
2024/03/05 06:16:46;;;;;;;;;;;;;;;15.93;49.42;100292.38;4957731;29;1110;-45
2024/03/05 06:19:12;;;;;;;;;;;;;;;15.96;49.11;100297.44;4957654;29;1347;-44
2024/03/05 06:21:37;;;;;;;;;;;;;;;15.79;50.19;100296.09;4957460;29;1299;-46
2024/03/05 06:24:03;;;;;;;;;;;;;;;17.58;46.34;100296.16;4957725;29;1903;-44
2024/03/05 06:26:33;;;;;;;;;;;;;;;15.97;48.45;100295.63;4954240;29;1386;-47
2024/03/05 06:28:59;;;;;;;;;;;;;;;15.45;48.67;100296.84;4940503;29;1375;-42
2024/03/05 06:31:24;;;;;;;;;;;;;;;15.55;48.96;100297.84;4956894;29;1295;-45
2024/03/05 06:33:50;;;;;;;;;;;;;;;15.96;49.09;100296.59;4947006;29;2666;-42
2024/03/05 06:36:16;;;;;;;;;;;;;;;15.51;48.74;100290.25;4958800;28;1164;-41
2024/03/05 06:38:42;;;;;;;;;;;;;;;16.80;48.45;100305.97;4961124;29;1208;-44
2024/03/05 06:41:09;;;;;;;;;;;;;;;15.81;48.84;100294.19;4961660;29;1096;-47
2024/03/05 06:43:38;;;;;;;;;;;;;;;15.52;49.77;100305.19;4961450;29;1952;-43
2024/03/05 06:46:03;;;;;;;;;;;;;;;16.41;48.26;100298.44;4961150;29;1018;-44
2024/03/05 06:48:32;;;;;;;;;;;;;;;15.66;48.96;100304.16;4961341;29;1126;-45
2024/03/05 06:51:00;;;;;;;;;;;;;;;16.34;49.25;100298.09;4935348;29;1034;-46
2024/03/05 06:58:53;;;;;;;;;;;;;;;16.81;48.56;100304.16;4951746;29;1042;-47
2024/03/05 07:01:22;;;;;;;;;;;;;;;16.37;48.05;100292.53;4961036;29;1093;-46
2024/03/05 07:03:48;;;;;;;;;;;;;;;15.76;48.90;100289.22;4956078;29;2463;-46
2024/03/05 07:06:14;;;;;;;;;;;;;;;16.05;49.12;100297.72;4961014;29;1177;-44
2024/03/05 07:08:40;;;;;;;;;;;;;;;15.81;48.89;100296.84;4960682;29;1089;-46
2024/03/05 07:11:09;;;;;;;;;;;;;;;15.94;49.86;100304.69;4947823;29;1181;-44
2024/03/05 07:13:36;;;;;;;;;;;;;;;17.07;47.02;100299.38;4943719;29;1079;-45
2024/03/05 07:16:02;;;;;;;;;;;;;;;15.98;48.23;100300.84;4953792;29;1050;-45
2024/03/05 07:18:28;;;;;;;;;;;;;;;15.55;48.58;100297.84;4960751;29;1116;-48
2024/03/05 07:20:54;;;;;;;;;;;;;;;16.64;48.24;100291.28;4960803;29;1034;-44
2024/03/05 07:23:21;;;;;;;;;;;;;;;15.72;49.10;100292.22;4960662;29;1910;-44
2024/03/05 07:25:46;;;;;;;;;;;;;;;15.52;48.46;100298.09;4960207;29;1026;-46
2024/03/05 07:28:12;;;;;;;;;;;;;;;16.58;48.04;100298.91;4960374;29;942;-47
2024/03/05 07:30:37;;;;;;;;;;;;;;;15.67;48.96;100297.88;4951291;29;1188;-44
2024/03/05 07:33:03;;;;;;;;;;;;;;;15.50;48.00;100293.84;4956743;29;1098;-45
2024/03/05 07:35:29;;;;;;;;;;;;;;;15.30;48.00;100289.09;4943478;29;3298;-45
2024/03/05 07:37:56;;;;;;;;;;;;;;;16.19;48.16;100296.63;4960064;29;1106;-46
2024/03/05 07:40:22;;;;;;;;;;;;;;;15.84;49.66;100295.72;4952844;29;819;-45
2024/03/05 07:42:48;;;;;;;;;;;;;;;17.70;46.42;100299.59;4947632;29;1997;-47
2024/03/05 07:45:15;;;;;;;;;;;;;;;16.46;47.98;100295.41;4959942;29;1101;-46
2024/03/05 07:47:40;;;;;;;;;;;;;;;15.78;48.29;100297.06;4958759;28;1045;-46
2024/03/05 07:50:07;;;;;;;;;;;;;;;15.58;47.80;100303.91;4958937;29;1073;-46
2024/03/05 07:52:32;;;;;;;;;;;;;;;15.37;47.64;100302.75;4959919;29;884;-44
2024/03/05 07:54:58;;;;;;;;;;;;;;;16.91;48.41;100301.59;4960202;29;1055;-43
2024/03/05 07:57:24;;;;;;;;;;;;;;;16.09;48.95;100299.16;4956561;29;1213;-46
2024/03/05 07:59:50;;;;;;;;;;;;;;;15.63;48.31;100289.31;4950465;29;1097;-47
2024/03/05 08:02:16;;;;;;;;;;;;;;;15.46;47.65;100303.00;4959815;29;1979;-48
2024/03/05 08:04:41;;;;;;;;;;;;;;;16.20;48.94;100299.16;4959616;29;2521;-43
2024/03/05 08:07:07;;;;;;;;;;;;;;;16.05;48.62;100298.56;4959269;29;1096;-46
2024/03/05 08:09:36;;;;;;;;;;;;;;;15.50;48.65;100300.00;4958836;29;1060;-47
2024/03/05 08:12:02;;;;;;;;;;;;;;;15.34;47.66;100289.72;4959663;29;1432;-46
2024/03/05 08:14:28;;;;;;;;;;;;;;;16.84;47.74;100283.50;4950177;29;1118;-47
2024/03/05 08:16:54;;;;;;;;;;;;;;;15.85;48.59;100290.31;4946493;29;878;-41
2024/03/05 08:19:19;;;;;;;;;;;;;;;17.34;47.22;100291.91;4942312;29;1118;-48
2024/03/05 08:21:45;;;;;;;;;;;;;;;16.72;47.74;100287.16;4959376;29;1037;-46
2024/03/05 08:24:11;;;;;;;;;;;;;;;16.02;48.59;100270.47;4959542;29;1910;-45
2024/03/05 08:26:36;;;;;;;;;;;;;;;15.72;48.53;100276.31;4959188;29;1046;-43
2024/03/05 08:29:03;;;;;;;;;;;;;;;16.48;48.31;100274.91;4948890;29;1106;-47
2024/03/05 08:31:28;;;;;;;;;;;;;;;15.70;48.63;100278.25;4959079;29;1134;-45
2024/03/05 08:33:54;;;;;;;;;;;;;;;15.59;47.94;100276.41;4959150;29;2578;-47
2024/03/05 08:36:21;;;;;;;;;;;;;;;15.34;47.52;100283.56;4959161;29;1037;-45
2024/03/05 08:38:47;;;;;;;;;;;;;;;16.21;48.85;100282.28;4958874;29;1096;-45
2024/03/05 08:41:12;;;;;;;;;;;;;;;16.16;48.44;100269.34;4959311;29;1017;-47
2024/03/05 08:43:38;;;;;;;;;;;;;;;15.57;48.88;100273.03;4959213;29;2020;-44
2024/03/05 08:46:04;;;;;;;;;;;;;;;15.46;48.56;100269.41;4956320;29;1232;-44
2024/03/05 08:48:30;;;;;;;;;;;;;;;16.84;47.54;100272.03;4949206;29;1188;-44
2024/03/05 08:50:58;;;;;;;;;;;;;;;15.73;48.89;100270.06;4958868;29;1148;-44
2024/03/05 08:53:24;;;;;;;;;;;;;;;15.47;47.96;100262.28;4959089;29;1128;-45
2024/03/05 08:55:52;;;;;;;;;;;;;;;16.28;49.00;100266.72;4958981;29;1011;-45
2024/03/05 08:58:17;;;;;;;;;;;;;;;18.31;44.28;100271.31;4954682;28;1991;-48
2024/03/05 09:00:43;;;;;;;;;;;;;;;18.21;44.63;100281.06;4951221;29;1896;-45
2024/03/05 09:03:09;;;;;;;;;;;;;;;16.56;47.70;100287.56;4954069;28;1974;-45
2024/03/05 09:05:35;;;;;;;;;;;;;;;18.18;44.01;100286.69;4951948;29;2746;-44
2024/03/05 09:08:00;;;;;;;;;;;;;;;17.23;46.20;100280.34;4952834;28;1782;-43
2024/03/05 09:10:26;;;;;;;;;;;;;;;15.62;51.67;100284.97;4955362;29;1842;-42
2024/03/05 09:12:51;;;;;;;;;;;;;;;18.16;45.81;100283.31;4946534;29;1925;-47
2024/03/05 09:15:17;;;;;;;;;;;;;;;17.38;46.82;100282.72;4948568;29;1864;-42
2024/03/05 09:17:43;;;;;;;;;;;;;;;16.38;48.14;100282.75;4949749;29;2412;-46
2024/03/05 09:20:14;;;;;;;;;;;;;;;16.11;47.79;100287.47;4946399;29;1870;-46
2024/03/05 09:22:46;;;;;;;;;;;;;;;15.84;47.22;100290.44;4951387;29;1902;-43
2024/03/05 09:25:15;;;;;;;;;;;;;;;15.66;46.52;100288.25;4945440;29;1122;-43
2024/03/05 09:27:44;;;;;;;;;;;;;;;15.61;46.00;100290.41;4953432;29;1216;-41
2024/03/05 09:30:13;;;;;;;;;;;;;;;16.25;47.63;100297.00;4945429;29;1118;-44
2024/03/05 09:32:39;;;;;;;;;;;;;;;16.21;48.19;100286.75;4958451;29;1073;-42
2024/03/05 09:35:08;;;;;;;;;;;;;;;15.68;48.22;100291.63;4954588;29;993;-44
2024/03/05 09:37:34;;;;;;;;;;;;;;;15.51;47.36;100292.91;4950039;29;1101;-46
2024/03/05 09:39:59;;;;;;;;;;;;;;;16.87;47.92;100301.84;4957946;29;1182;-45
2024/03/05 09:42:26;;;;;;;;;;;;;;;15.92;48.33;100295.97;4945324;29;1914;-44
2024/03/05 09:44:52;;;;;;;;;;;;;;;15.50;48.00;100292.06;4957064;29;1096;-45
2024/03/05 09:47:18;;;;;;;;;;;;;;;16.80;47.59;100292.69;4940348;29;1315;-44
2024/03/05 09:49:44;;;;;;;;;;;;;;;15.84;48.50;100290.44;4947954;29;2603;-45
2024/03/05 09:52:09;;;;;;;;;;;;;;;15.58;47.89;100290.63;4937424;29;1086;-46
2024/03/05 09:54:36;;;;;;;;;;;;;;;15.39;47.33;100298.19;4940980;29;1062;-45
2024/03/05 09:57:01;;;;;;;;;;;;;;;17.15;47.48;100290.78;4957821;29;1136;-44
2024/03/05 09:59:27;;;;;;;;;;;;;;;15.97;48.44;100288.50;4940893;29;1073;-45
2024/03/05 10:01:53;;;;;;;;;;;;;;;15.69;48.23;100279.19;4957803;29;1899;-45
2024/03/05 10:04:19;;;;;;;;;;;;;;;15.42;48.04;100275.88;4955570;29;1172;-46
2024/03/05 10:06:45;;;;;;;;;;;;;;;17.21;47.38;100278.81;4927992;29;1181;-44
2024/03/05 10:09:12;;;;;;;;;;;;;;;16.22;48.65;100270.69;4957249;29;1271;-45
2024/03/05 10:11:38;;;;;;;;;;;;;;;15.64;48.12;100266.28;4957037;29;1085;-43
2024/03/05 10:14:08;;;;;;;;;;;;;;;15.49;47.24;100270.97;4957454;29;1014;-46
2024/03/05 10:16:34;;;;;;;;;;;;;;;15.33;46.84;100264.16;4957617;29;1073;-45
2024/03/05 10:19:10;;;;;;;;;;;;;;;16.85;47.48;100268.41;4957874;29;1034;-44
2024/03/05 10:21:36;;;;;;;;;;;;;;;15.85;48.30;100265.63;4957232;29;2773;-47
2024/03/05 10:24:05;;;;;;;;;;;;;;;16.01;49.39;100265.28;4957733;29;1984;-45
2024/03/05 10:26:31;;;;;;;;;;;;;;;16.30;48.15;100248.84;4956165;29;1205;-46
2024/03/05 10:28:57;;;;;;;;;;;;;;;15.65;48.09;100252.06;4945188;29;1149;-46
2024/03/05 10:31:23;;;;;;;;;;;;;;;15.35;47.56;100256.13;4956700;29;1125;-45
2024/03/05 10:33:49;;;;;;;;;;;;;;;15.77;48.93;100243.19;4956695;29;1026;-47
2024/03/05 10:36:33;;;;;;;;;;;;;;;16.20;48.39;100234.66;4956203;29;1429;-44
2024/03/05 10:38:59;;;;;;;;;;;;;;;15.47;48.23;100227.81;4956608;29;1006;-43
2024/03/05 10:41:29;;;;;;;;;;;;;;;16.55;48.07;100235.44;4951358;29;1165;-47
2024/03/05 10:43:55;;;;;;;;;;;;;;;15.90;48.23;100223.63;4957150;29;1918;-47
2024/03/05 10:46:21;;;;;;;;;;;;;;;15.50;48.11;100228.44;4957764;29;1126;-45
2024/03/05 10:48:47;;;;;;;;;;;;;;;15.39;47.06;100217.81;4958246;29;1197;-47
2024/03/05 10:51:13;;;;;;;;;;;;;;;16.88;47.53;100225.66;4956439;29;1154;-43
2024/03/05 10:53:39;;;;;;;;;;;;;;;15.84;48.24;100217.03;4952460;29;1224;-45
2024/03/05 10:56:05;;;;;;;;;;;;;;;15.92;49.44;100216.41;4957606;29;1061;-47
2024/03/05 11:01:02;;;;;;;;;;;;;;;15.78;48.10;100207.72;4940882;29;1125;-44
2024/03/05 11:03:33;;;;;;;;;;;;;;;15.61;47.48;100214.34;4957020;29;1914;-46
2024/03/05 11:05:59;;;;;;;;;;;;;;;15.48;47.99;100205.66;4944005;29;1057;-47
2024/03/05 11:08:24;;;;;;;;;;;;;;;15.89;48.39;100206.03;4940497;29;1086;-43
2024/03/05 11:10:51;;;;;;;;;;;;;;;16.50;48.20;100209.22;4956974;29;1120;-49
2024/03/05 11:13:17;;;;;;;;;;;;;;;18.01;45.88;100209.13;4939546;29;1120;-46
2024/03/05 11:15:42;;;;;;;;;;;;;;;16.32;48.58;100212.41;4957298;29;1058;-45
2024/03/05 11:18:23;;;;;;;;;;;;;;;15.82;48.20;100203.03;4955287;29;910;-46
2024/03/05 11:20:49;;;;;;;;;;;;;;;16.15;48.85;100197.84;4957231;29;1082;-44
2024/03/05 11:23:14;;;;;;;;;;;;;;;16.08;48.41;100201.97;4958798;28;1920;-46
2024/03/05 11:25:51;;;;;;;;;;;;;;;15.63;48.16;100203.63;4960902;29;1120;-41
2024/03/05 11:28:17;;;;;;;;;;;;;;;16.25;48.78;100201.44;4957667;29;1082;-44
2024/03/05 11:30:43;;;;;;;;;;;;;;;16.64;47.94;100197.47;4959696;29;1161;-46
2024/03/05 11:33:11;;;;;;;;;;;;;;;15.87;48.51;100194.69;4960694;28;1036;-48
2024/03/05 11:35:38;;;;;;;;;;;;;;;15.62;48.01;100194.81;4960126;29;1050;-48
2024/03/05 11:38:03;;;;;;;;;;;;;;;16.79;47.85;100203.34;4959302;29;1117;-46
2024/03/05 11:40:31;;;;;;;;;;;;;;;15.81;48.37;100198.69;4956859;29;1097;-46
2024/03/05 11:42:57;;;;;;;;;;;;;;;15.57;48.14;100198.78;4941247;29;1997;-44
2024/03/05 11:45:45;;;;;;;;;;;;;;;16.31;48.21;100199.25;4959293;29;1161;-49
2024/03/05 11:48:11;;;;;;;;;;;;;;;15.63;48.27;100195.69;4960405;29;1217;-45
2024/03/05 11:50:38;;;;;;;;;;;;;;;15.72;48.82;100202.91;4960035;29;1112;-45
2024/03/05 11:53:07;;;;;;;;;;;;;;;16.84;47.22;100201.16;4955572;29;1057;-43
2024/03/05 11:55:32;;;;;;;;;;;;;;;15.88;48.15;100199.88;4960066;29;1079;-49
2024/03/05 11:57:58;;;;;;;;;;;;;;;16.09;48.98;100188.56;4960472;29;1165;-45
2024/03/05 12:00:26;;;;;;;;;;;;;;;16.68;47.77;100198.94;4960373;29;1066;-48
2024/03/05 12:02:58;;;;;;;;;;;;;;;15.81;48.33;100195.19;4942951;29;1987;-47
2024/03/05 12:05:24;;;;;;;;;;;;;;;15.55;47.50;100190.94;4954064;29;1120;-50
2024/03/05 12:07:59;;;;;;;;;;;;;;;16.56;47.91;100190.16;4959799;28;1050;-44
2024/03/05 12:10:31;;;;;;;;;;;;;;;15.91;49.49;100183.72;4959801;29;1378;-48
2024/03/05 12:12:57;;;;;;;;;;;;;;;17.89;45.74;100184.41;4959969;28;1188;-48
2024/03/05 12:15:23;;;;;;;;;;;;;;;17.04;47.54;100181.84;4959962;29;1201;-47
2024/03/05 12:17:48;;;;;;;;;;;;;;;16.20;48.18;100177.09;4949569;29;1093;-44
2024/03/05 12:20:18;;;;;;;;;;;;;;;15.87;47.52;100178.78;4959613;28;1045;-45
2024/03/05 12:22:50;;;;;;;;;;;;;;;16.95;47.63;100181.66;4959046;29;1914;-46
2024/03/05 12:25:17;;;;;;;;;;;;;;;16.08;47.89;100178.91;4959391;29;1157;-47
2024/03/05 12:27:47;;;;;;;;;;;;;;;15.81;47.73;100174.81;4959540;29;1133;-44
2024/03/05 12:30:12;;;;;;;;;;;;;;;15.52;46.84;100175.28;4957078;29;946;-45
2024/03/05 12:32:42;;;;;;;;;;;;;;;16.67;47.66;100188.41;4959421;29;1010;-44
2024/03/05 12:35:20;;;;;;;;;;;;;;;15.85;48.09;100184.22;4958723;28;1073;-45
2024/03/05 12:37:45;;;;;;;;;;;;;;;15.60;47.07;100182.66;4946949;29;998;-45
2024/03/05 12:40:14;;;;;;;;;;;;;;;17.13;47.56;100192.56;4959265;29;1205;-42
2024/03/05 12:42:39;;;;;;;;;;;;;;;16.37;48.44;100191.66;4949780;29;1914;-46
2024/03/05 12:45:06;;;;;;;;;;;;;;;15.88;47.89;100193.75;4958729;29;1053;-41
2024/03/05 12:47:31;;;;;;;;;;;;;;;16.26;49.20;100191.69;4958731;29;1113;-43
2024/03/05 12:49:59;;;;;;;;;;;;;;;16.88;47.54;100196.44;4959094;29;1181;-46
2024/03/05 12:52:24;;;;;;;;;;;;;;;15.99;48.23;100190.28;4959168;29;1003;-43